sensor_id;sensor_type;location;lat;lon;timestamp;P1;durP1;ratioP1;P2;durP2;ratioP2
44981;SDS011;30716;41.740;-70.400;2023-06-01T00:02:09;3.42;;;1.95;;
44981;SDS011;30716;41.740;-70.400;2023-06-01T00:04:37;3.53;;;2.22;;
44981;SDS011;30716;41.740;-70.400;2023-06-01T00:07:08;3.72;;;2.17;;
44981;SDS011;30716;41.740;-70.400;2023-06-01T00:09:35;3.10;;;1.80;;
44981;SDS011;30716;41.740;-70.400;2023-06-01T00:12:02;3.13;;;2.33;;
44981;SDS011;30716;41.740;-70.400;2023-06-01T00:14:30;3.28;;;1.95;;
44981;SDS011;30716;41.740;-70.400;2023-06-01T00:16:56;3.10;;;2.10;;
44981;SDS011;30716;41.740;-70.400;2023-06-01T00:19:22;2.83;;;2.13;;
44981;SDS011;30716;41.740;-70.400;2023-06-01T00:21:52;2.35;;;1.60;;
44981;SDS011;30716;41.740;-70.400;2023-06-01T00:24:19;3.13;;;1.90;;
44981;SDS011;30716;41.740;-70.400;2023-06-01T00:26:46;3.55;;;2.20;;
44981;SDS011;30716;41.740;-70.400;2023-06-01T00:29:12;3.05;;;1.95;;
44981;SDS011;30716;41.740;-70.400;2023-06-01T00:31:39;3.78;;;2.10;;
44981;SDS011;30716;41.740;-70.400;2023-06-01T00:34:05;3.08;;;2.13;;
44981;SDS011;30716;41.740;-70.400;2023-06-01T00:36:32;2.95;;;2.10;;
44981;SDS011;30716;41.740;-70.400;2023-06-01T00:38:59;3.58;;;2.25;;
44981;SDS011;30716;41.740;-70.400;2023-06-01T00:41:28;2.83;;;1.77;;
44981;SDS011;30716;41.740;-70.400;2023-06-01T00:43:55;3.88;;;2.50;;
44981;SDS011;30716;41.740;-70.400;2023-06-01T00:46:21;4.10;;;2.20;;
44981;SDS011;30716;41.740;-70.400;2023-06-01T00:48:49;3.05;;;2.15;;
44981;SDS011;30716;41.740;-70.400;2023-06-01T00:51:17;3.45;;;2.53;;
44981;SDS011;30716;41.740;-70.400;2023-06-01T00:53:44;3.95;;;2.53;;
44981;SDS011;30716;41.740;-70.400;2023-06-01T00:56:10;3.42;;;2.25;;
44981;SDS011;30716;41.740;-70.400;2023-06-01T00:58:40;3.28;;;2.10;;
44981;SDS011;30716;41.740;-70.400;2023-06-01T01:01:06;3.17;;;2.00;;
44981;SDS011;30716;41.740;-70.400;2023-06-01T01:03:46;3.30;;;2.13;;
44981;SDS011;30716;41.740;-70.400;2023-06-01T01:06:39;2.63;;;1.88;;
44981;SDS011;30716;41.740;-70.400;2023-06-01T01:15:37;3.25;;;2.00;;
44981;SDS011;30716;41.740;-70.400;2023-06-01T01:17:41;4.05;;;2.17;;
44981;SDS011;30716;41.740;-70.400;2023-06-01T01:20:15;3.38;;;2.10;;
44981;SDS011;30716;41.740;-70.400;2023-06-01T01:31:22;3.75;;;2.53;;
44981;SDS011;30716;41.740;-70.400;2023-06-01T01:33:50;3.28;;;2.05;;
44981;SDS011;30716;41.740;-70.400;2023-06-01T01:36:18;3.10;;;2.22;;
44981;SDS011;30716;41.740;-70.400;2023-06-01T01:38:46;3.25;;;2.10;;
44981;SDS011;30716;41.740;-70.400;2023-06-01T01:41:13;3.90;;;2.53;;
44981;SDS011;30716;41.740;-70.400;2023-06-01T01:43:40;3.25;;;2.13;;
44981;SDS011;30716;41.740;-70.400;2023-06-01T01:51:37;3.75;;;2.50;;
44981;SDS011;30716;41.740;-70.400;2023-06-01T01:54:15;3.28;;;2.10;;
44981;SDS011;30716;41.740;-70.400;2023-06-01T01:56:46;3.65;;;2.17;;
44981;SDS011;30716;41.740;-70.400;2023-06-01T01:59:17;3.28;;;2.08;;
44981;SDS011;30716;41.740;-70.400;2023-06-01T02:01:44;2.83;;;1.92;;
44981;SDS011;30716;41.740;-70.400;2023-06-01T02:04:11;2.70;;;1.92;;
44981;SDS011;30716;41.740;-70.400;2023-06-01T02:06:37;3.22;;;2.38;;
44981;SDS011;30716;41.740;-70.400;2023-06-01T02:09:04;3.53;;;2.45;;
44981;SDS011;30716;41.740;-70.400;2023-06-01T02:11:32;3.90;;;2.15;;
44981;SDS011;30716;41.740;-70.400;2023-06-01T02:13:59;3.58;;;2.25;;
44981;SDS011;30716;41.740;-70.400;2023-06-01T02:16:27;3.83;;;2.28;;
44981;SDS011;30716;41.740;-70.400;2023-06-01T02:18:54;3.42;;;2.13;;
44981;SDS011;30716;41.740;-70.400;2023-06-01T02:21:23;4.10;;;2.45;;
44981;SDS011;30716;41.740;-70.400;2023-06-01T02:23:50;3.40;;;2.42;;
44981;SDS011;30716;41.740;-70.400;2023-06-01T02:26:16;2.85;;;2.20;;
44981;SDS011;30716;41.740;-70.400;2023-06-01T02:28:43;2.72;;;1.88;;
44981;SDS011;30716;41.740;-70.400;2023-06-01T02:31:10;3.70;;;2.50;;
44981;SDS011;30716;41.740;-70.400;2023-06-01T02:33:37;3.33;;;2.28;;
44981;SDS011;30716;41.740;-70.400;2023-06-01T02:36:05;3.53;;;1.95;;
44981;SDS011;30716;41.740;-70.400;2023-06-01T02:38:31;3.40;;;2.38;;
44981;SDS011;30716;41.740;-70.400;2023-06-01T02:40:57;3.17;;;2.10;;
44981;SDS011;30716;41.740;-70.400;2023-06-01T02:43:24;4.25;;;2.55;;
44981;SDS011;30716;41.740;-70.400;2023-06-01T02:45:50;3.42;;;2.25;;
44981;SDS011;30716;41.740;-70.400;2023-06-01T02:48:18;2.55;;;1.90;;
44981;SDS011;30716;41.740;-70.400;2023-06-01T02:50:45;3.20;;;2.20;;
44981;SDS011;30716;41.740;-70.400;2023-06-01T02:53:11;3.40;;;2.25;;
44981;SDS011;30716;41.740;-70.400;2023-06-01T02:55:37;3.70;;;2.30;;
44981;SDS011;30716;41.740;-70.400;2023-06-01T02:58:03;3.08;;;2.00;;
44981;SDS011;30716;41.740;-70.400;2023-06-01T03:00:34;3.28;;;2.38;;
44981;SDS011;30716;41.740;-70.400;2023-06-01T03:03:00;3.72;;;2.25;;
44981;SDS011;30716;41.740;-70.400;2023-06-01T03:05:29;3.22;;;2.17;;
44981;SDS011;30716;41.740;-70.400;2023-06-01T03:07:58;4.05;;;2.65;;
44981;SDS011;30716;41.740;-70.400;2023-06-01T03:10:24;3.10;;;1.90;;
44981;SDS011;30716;41.740;-70.400;2023-06-01T03:12:50;2.63;;;2.05;;
44981;SDS011;30716;41.740;-70.400;2023-06-01T03:15:17;4.10;;;2.38;;
44981;SDS011;30716;41.740;-70.400;2023-06-01T03:17:43;3.33;;;2.22;;
44981;SDS011;30716;41.740;-70.400;2023-06-01T03:20:11;3.28;;;2.35;;
44981;SDS011;30716;41.740;-70.400;2023-06-01T03:22:43;4.40;;;2.45;;
44981;SDS011;30716;41.740;-70.400;2023-06-01T03:25:11;4.15;;;2.20;;
44981;SDS011;30716;41.740;-70.400;2023-06-01T03:27:38;3.30;;;2.13;;
44981;SDS011;30716;41.740;-70.400;2023-06-01T03:30:05;3.22;;;2.20;;
44981;SDS011;30716;41.740;-70.400;2023-06-01T03:32:41;4.30;;;2.13;;
44981;SDS011;30716;41.740;-70.400;2023-06-01T03:35:08;3.90;;;2.22;;
44981;SDS011;30716;41.740;-70.400;2023-06-01T03:37:36;4.20;;;2.30;;
44981;SDS011;30716;41.740;-70.400;2023-06-01T03:40:03;3.30;;;1.83;;
44981;SDS011;30716;41.740;-70.400;2023-06-01T03:42:36;3.25;;;2.03;;
44981;SDS011;30716;41.740;-70.400;2023-06-01T03:45:04;4.18;;;2.35;;
44981;SDS011;30716;41.740;-70.400;2023-06-01T03:47:31;3.63;;;2.13;;
44981;SDS011;30716;41.740;-70.400;2023-06-01T03:49:57;4.15;;;2.10;;
44981;SDS011;30716;41.740;-70.400;2023-06-01T03:52:25;3.15;;;2.10;;
44981;SDS011;30716;41.740;-70.400;2023-06-01T03:54:51;4.32;;;2.15;;
44981;SDS011;30716;41.740;-70.400;2023-06-01T03:57:18;3.55;;;2.05;;
44981;SDS011;30716;41.740;-70.400;2023-06-01T03:59:44;4.03;;;2.25;;
44981;SDS011;30716;41.740;-70.400;2023-06-01T04:02:10;3.55;;;1.90;;
44981;SDS011;30716;41.740;-70.400;2023-06-01T04:04:38;2.97;;;1.83;;
44981;SDS011;30716;41.740;-70.400;2023-06-01T04:07:10;3.30;;;1.92;;
44981;SDS011;30716;41.740;-70.400;2023-06-01T04:09:43;2.97;;;1.98;;
44981;SDS011;30716;41.740;-70.400;2023-06-01T04:12:10;2.88;;;2.10;;
44981;SDS011;30716;41.740;-70.400;2023-06-01T04:14:36;3.92;;;2.10;;
44981;SDS011;30716;41.740;-70.400;2023-06-01T04:17:03;3.33;;;2.10;;
44981;SDS011;30716;41.740;-70.400;2023-06-01T04:19:35;3.53;;;2.05;;
44981;SDS011;30716;41.740;-70.400;2023-06-01T04:22:01;2.70;;;1.92;;
44981;SDS011;30716;41.740;-70.400;2023-06-01T04:24:27;3.53;;;1.98;;
44981;SDS011;30716;41.740;-70.400;2023-06-01T04:26:54;3.15;;;1.95;;
44981;SDS011;30716;41.740;-70.400;2023-06-01T04:29:21;3.92;;;2.28;;
44981;SDS011;30716;41.740;-70.400;2023-06-01T04:31:50;2.45;;;1.63;;
44981;SDS011;30716;41.740;-70.400;2023-06-01T04:34:16;3.10;;;2.47;;
44981;SDS011;30716;41.740;-70.400;2023-06-01T04:36:44;3.65;;;2.15;;
44981;SDS011;30716;41.740;-70.400;2023-06-01T04:39:12;3.03;;;2.10;;
44981;SDS011;30716;41.740;-70.400;2023-06-01T04:41:39;3.20;;;2.20;;
44981;SDS011;30716;41.740;-70.400;2023-06-01T04:44:06;4.25;;;2.20;;
44981;SDS011;30716;41.740;-70.400;2023-06-01T04:46:33;3.28;;;1.95;;
44981;SDS011;30716;41.740;-70.400;2023-06-01T04:49:01;2.80;;;1.83;;
44981;SDS011;30716;41.740;-70.400;2023-06-01T04:51:28;4.57;;;1.95;;
44981;SDS011;30716;41.740;-70.400;2023-06-01T04:53:56;3.60;;;2.25;;
44981;SDS011;30716;41.740;-70.400;2023-06-01T04:56:23;3.42;;;2.42;;
44981;SDS011;30716;41.740;-70.400;2023-06-01T04:58:53;3.53;;;2.28;;
44981;SDS011;30716;41.740;-70.400;2023-06-01T05:01:24;2.97;;;1.55;;
44981;SDS011;30716;41.740;-70.400;2023-06-01T05:03:52;4.10;;;2.40;;
44981;SDS011;30716;41.740;-70.400;2023-06-01T05:06:23;2.60;;;1.40;;
44981;SDS011;30716;41.740;-70.400;2023-06-01T05:08:50;2.88;;;2.00;;
44981;SDS011;30716;41.740;-70.400;2023-06-01T05:11:16;4.10;;;2.20;;
44981;SDS011;30716;41.740;-70.400;2023-06-01T05:13:42;3.80;;;2.30;;
44981;SDS011;30716;41.740;-70.400;2023-06-01T05:16:09;3.40;;;2.25;;
44981;SDS011;30716;41.740;-70.400;2023-06-01T05:18:36;3.03;;;2.10;;
44981;SDS011;30716;41.740;-70.400;2023-06-01T05:21:04;3.17;;;1.95;;
44981;SDS011;30716;41.740;-70.400;2023-06-01T05:23:30;3.28;;;2.15;;
44981;SDS011;30716;41.740;-70.400;2023-06-01T05:25:58;3.47;;;1.88;;
44981;SDS011;30716;41.740;-70.400;2023-06-01T05:28:30;2.70;;;1.80;;
44981;SDS011;30716;41.740;-70.400;2023-06-01T05:31:01;3.20;;;2.33;;
44981;SDS011;30716;41.740;-70.400;2023-06-01T05:33:27;2.72;;;1.75;;
44981;SDS011;30716;41.740;-70.400;2023-06-01T05:35:54;2.47;;;1.60;;
44981;SDS011;30716;41.740;-70.400;2023-06-01T05:38:20;4.40;;;2.00;;
44981;SDS011;30716;41.740;-70.400;2023-06-01T05:40:46;3.13;;;2.05;;
44981;SDS011;30716;41.740;-70.400;2023-06-01T05:43:13;3.60;;;1.92;;
44981;SDS011;30716;41.740;-70.400;2023-06-01T05:45:40;2.50;;;1.60;;
44981;SDS011;30716;41.740;-70.400;2023-06-01T05:48:06;2.67;;;1.90;;
44981;SDS011;30716;41.740;-70.400;2023-06-01T05:50:33;3.80;;;2.10;;
44981;SDS011;30716;41.740;-70.400;2023-06-01T05:53:00;2.80;;;1.80;;
44981;SDS011;30716;41.740;-70.400;2023-06-01T05:55:26;2.92;;;2.13;;
44981;SDS011;30716;41.740;-70.400;2023-06-01T05:57:54;3.35;;;1.90;;
44981;SDS011;30716;41.740;-70.400;2023-06-01T06:00:20;3.58;;;2.40;;
44981;SDS011;30716;41.740;-70.400;2023-06-01T06:02:48;2.85;;;1.80;;
44981;SDS011;30716;41.740;-70.400;2023-06-01T06:05:15;2.75;;;1.95;;
44981;SDS011;30716;41.740;-70.400;2023-06-01T06:07:42;2.53;;;1.77;;
44981;SDS011;30716;41.740;-70.400;2023-06-01T06:10:08;2.53;;;1.70;;
44981;SDS011;30716;41.740;-70.400;2023-06-01T06:12:38;3.08;;;1.95;;
44981;SDS011;30716;41.740;-70.400;2023-06-01T06:15:05;4.20;;;1.88;;
44981;SDS011;30716;41.740;-70.400;2023-06-01T06:17:32;2.90;;;1.85;;
44981;SDS011;30716;41.740;-70.400;2023-06-01T06:19:58;3.42;;;1.80;;
44981;SDS011;30716;41.740;-70.400;2023-06-01T06:22:25;2.78;;;1.70;;
44981;SDS011;30716;41.740;-70.400;2023-06-01T06:24:51;2.42;;;1.75;;
44981;SDS011;30716;41.740;-70.400;2023-06-01T06:27:17;2.55;;;1.70;;
44981;SDS011;30716;41.740;-70.400;2023-06-01T06:29:44;2.72;;;1.50;;
44981;SDS011;30716;41.740;-70.400;2023-06-01T06:32:10;3.72;;;2.10;;
44981;SDS011;30716;41.740;-70.400;2023-06-01T06:34:36;2.83;;;1.95;;
44981;SDS011;30716;41.740;-70.400;2023-06-01T06:37:03;3.28;;;1.95;;
44981;SDS011;30716;41.740;-70.400;2023-06-01T06:39:30;2.40;;;1.60;;
44981;SDS011;30716;41.740;-70.400;2023-06-01T06:41:56;2.80;;;1.50;;
44981;SDS011;30716;41.740;-70.400;2023-06-01T06:44:23;2.40;;;1.50;;
44981;SDS011;30716;41.740;-70.400;2023-06-01T06:46:49;2.78;;;1.73;;
44981;SDS011;30716;41.740;-70.400;2023-06-01T06:49:16;2.55;;;1.60;;
44981;SDS011;30716;41.740;-70.400;2023-06-01T06:51:43;3.20;;;2.13;;
44981;SDS011;30716;41.740;-70.400;2023-06-01T06:54:10;2.33;;;1.52;;
44981;SDS011;30716;41.740;-70.400;2023-06-01T06:56:36;2.72;;;1.58;;
44981;SDS011;30716;41.740;-70.400;2023-06-01T06:59:02;2.72;;;1.63;;
44981;SDS011;30716;41.740;-70.400;2023-06-01T07:01:29;2.15;;;1.52;;
44981;SDS011;30716;41.740;-70.400;2023-06-01T07:03:55;2.47;;;1.67;;
44981;SDS011;30716;41.740;-70.400;2023-06-01T07:06:21;2.70;;;1.75;;
44981;SDS011;30716;41.740;-70.400;2023-06-01T07:08:48;3.10;;;1.75;;
44981;SDS011;30716;41.740;-70.400;2023-06-01T07:11:15;2.75;;;1.63;;
44981;SDS011;30716;41.740;-70.400;2023-06-01T07:13:41;2.97;;;2.03;;
44981;SDS011;30716;41.740;-70.400;2023-06-01T07:16:08;2.40;;;1.65;;
44981;SDS011;30716;41.740;-70.400;2023-06-01T07:18:35;3.75;;;1.90;;
44981;SDS011;30716;41.740;-70.400;2023-06-01T07:21:01;3.60;;;1.77;;
44981;SDS011;30716;41.740;-70.400;2023-06-01T07:23:28;2.53;;;1.50;;
44981;SDS011;30716;41.740;-70.400;2023-06-01T07:25:54;1.90;;;1.20;;
44981;SDS011;30716;41.740;-70.400;2023-06-01T07:28:21;2.42;;;1.67;;
44981;SDS011;30716;41.740;-70.400;2023-06-01T07:30:50;2.10;;;1.40;;
44981;SDS011;30716;41.740;-70.400;2023-06-01T07:33:16;2.40;;;1.52;;
44981;SDS011;30716;41.740;-70.400;2023-06-01T07:35:43;2.08;;;1.50;;
44981;SDS011;30716;41.740;-70.400;2023-06-01T07:38:11;2.47;;;1.73;;
44981;SDS011;30716;41.740;-70.400;2023-06-01T07:40:37;1.77;;;1.27;;
44981;SDS011;30716;41.740;-70.400;2023-06-01T07:43:04;2.10;;;1.35;;
44981;SDS011;30716;41.740;-70.400;2023-06-01T07:45:30;2.85;;;1.73;;
44981;SDS011;30716;41.740;-70.400;2023-06-01T07:47:56;1.85;;;1.23;;
44981;SDS011;30716;41.740;-70.400;2023-06-01T07:50:22;2.00;;;1.50;;
44981;SDS011;30716;41.740;-70.400;2023-06-01T07:52:54;1.95;;;1.30;;
44981;SDS011;30716;41.740;-70.400;2023-06-01T07:55:20;2.10;;;1.45;;
44981;SDS011;30716;41.740;-70.400;2023-06-01T07:57:47;2.53;;;1.60;;
44981;SDS011;30716;41.740;-70.400;2023-06-01T08:00:13;2.25;;;1.50;;
44981;SDS011;30716;41.740;-70.400;2023-06-01T08:02:42;2.00;;;1.30;;
44981;SDS011;30716;41.740;-70.400;2023-06-01T08:05:09;2.15;;;1.50;;
44981;SDS011;30716;41.740;-70.400;2023-06-01T08:07:37;3.38;;;1.85;;
44981;SDS011;30716;41.740;-70.400;2023-06-01T08:10:04;2.13;;;1.58;;
44981;SDS011;30716;41.740;-70.400;2023-06-01T08:12:31;1.83;;;1.33;;
44981;SDS011;30716;41.740;-70.400;2023-06-01T08:14:59;2.45;;;1.45;;
44981;SDS011;30716;41.740;-70.400;2023-06-01T08:17:26;3.15;;;1.70;;
44981;SDS011;30716;41.740;-70.400;2023-06-01T08:19:52;2.22;;;1.40;;
44981;SDS011;30716;41.740;-70.400;2023-06-01T08:22:19;2.35;;;1.40;;
44981;SDS011;30716;41.740;-70.400;2023-06-01T08:24:46;2.50;;;1.50;;
44981;SDS011;30716;41.740;-70.400;2023-06-01T08:27:16;1.88;;;1.27;;
44981;SDS011;30716;41.740;-70.400;2023-06-01T08:29:44;2.22;;;1.27;;
44981;SDS011;30716;41.740;-70.400;2023-06-01T08:32:12;2.17;;;1.50;;
44981;SDS011;30716;41.740;-70.400;2023-06-01T08:34:40;2.08;;;1.20;;
44981;SDS011;30716;41.740;-70.400;2023-06-01T08:37:06;2.33;;;1.58;;
44981;SDS011;30716;41.740;-70.400;2023-06-01T08:39:32;2.80;;;1.35;;
44981;SDS011;30716;41.740;-70.400;2023-06-01T08:44:39;2.10;;;1.50;;
44981;SDS011;30716;41.740;-70.400;2023-06-01T08:47:07;2.65;;;1.52;;
44981;SDS011;30716;41.740;-70.400;2023-06-01T08:49:34;1.83;;;1.38;;
44981;SDS011;30716;41.740;-70.400;2023-06-01T08:52:14;2.40;;;1.25;;
44981;SDS011;30716;41.740;-70.400;2023-06-01T08:54:48;3.08;;;1.48;;
44981;SDS011;30716;41.740;-70.400;2023-06-01T08:57:15;1.65;;;1.20;;
44981;SDS011;30716;41.740;-70.400;2023-06-01T08:59:41;2.20;;;1.38;;
44981;SDS011;30716;41.740;-70.400;2023-06-01T09:02:10;2.45;;;1.20;;
44981;SDS011;30716;41.740;-70.400;2023-06-01T09:04:36;2.08;;;1.17;;
44981;SDS011;30716;41.740;-70.400;2023-06-01T09:07:07;1.98;;;1.23;;
44981;SDS011;30716;41.740;-70.400;2023-06-01T09:09:33;2.55;;;1.45;;
44981;SDS011;30716;41.740;-70.400;2023-06-01T09:14:57;1.90;;;1.27;;
44981;SDS011;30716;41.740;-70.400;2023-06-01T09:17:35;2.67;;;1.50;;
44981;SDS011;30716;41.740;-70.400;2023-06-01T09:20:01;2.22;;;1.48;;
44981;SDS011;30716;41.740;-70.400;2023-06-01T09:22:40;2.28;;;1.38;;
44981;SDS011;30716;41.740;-70.400;2023-06-01T09:25:06;1.33;;;1.00;;
44981;SDS011;30716;41.740;-70.400;2023-06-01T09:27:42;1.48;;;1.10;;
44981;SDS011;30716;41.740;-70.400;2023-06-01T09:30:13;2.00;;;1.20;;
44981;SDS011;30716;41.740;-70.400;2023-06-01T09:32:40;2.00;;;1.50;;
44981;SDS011;30716;41.740;-70.400;2023-06-01T09:35:08;2.70;;;1.27;;
44981;SDS011;30716;41.740;-70.400;2023-06-01T09:37:36;1.88;;;1.27;;
44981;SDS011;30716;41.740;-70.400;2023-06-01T09:40:19;2.03;;;1.02;;
44981;SDS011;30716;41.740;-70.400;2023-06-01T09:42:48;1.55;;;1.20;;
44981;SDS011;30716;41.740;-70.400;2023-06-01T09:47:46;2.30;;;1.45;;
44981;SDS011;30716;41.740;-70.400;2023-06-01T09:50:36;1.27;;;1.00;;
44981;SDS011;30716;41.740;-70.400;2023-06-01T09:53:06;1.77;;;1.27;;
44981;SDS011;30716;41.740;-70.400;2023-06-01T09:55:33;2.13;;;1.60;;
44981;SDS011;30716;41.740;-70.400;2023-06-01T09:58:18;2.08;;;1.10;;
44981;SDS011;30716;41.740;-70.400;2023-06-01T10:00:48;1.80;;;1.00;;
44981;SDS011;30716;41.740;-70.400;2023-06-01T10:03:16;2.63;;;1.15;;
44981;SDS011;30716;41.740;-70.400;2023-06-01T10:05:44;1.73;;;1.23;;
44981;SDS011;30716;41.740;-70.400;2023-06-01T10:08:12;2.80;;;1.40;;
44981;SDS011;30716;41.740;-70.400;2023-06-01T10:10:48;1.75;;;1.08;;
44981;SDS011;30716;41.740;-70.400;2023-06-01T10:13:15;1.60;;;1.10;;
44981;SDS011;30716;41.740;-70.400;2023-06-01T10:15:41;1.70;;;1.27;;
44981;SDS011;30716;41.740;-70.400;2023-06-01T10:18:08;2.13;;;1.38;;
44981;SDS011;30716;41.740;-70.400;2023-06-01T10:20:35;1.65;;;1.20;;
44981;SDS011;30716;41.740;-70.400;2023-06-01T10:23:04;1.23;;;0.93;;
44981;SDS011;30716;41.740;-70.400;2023-06-01T10:25:34;1.45;;;1.00;;
44981;SDS011;30716;41.740;-70.400;2023-06-01T10:28:06;1.70;;;1.00;;
44981;SDS011;30716;41.740;-70.400;2023-06-01T10:30:33;2.30;;;1.20;;
44981;SDS011;30716;41.740;-70.400;2023-06-01T10:33:02;2.42;;;1.27;;
44981;SDS011;30716;41.740;-70.400;2023-06-01T10:40:43;1.63;;;1.10;;
44981;SDS011;30716;41.740;-70.400;2023-06-01T10:46:01;2.13;;;1.10;;
44981;SDS011;30716;41.740;-70.400;2023-06-01T10:51:18;2.13;;;1.38;;
44981;SDS011;30716;41.740;-70.400;2023-06-01T10:53:45;1.38;;;0.95;;
44981;SDS011;30716;41.740;-70.400;2023-06-01T10:56:18;2.53;;;1.20;;
44981;SDS011;30716;41.740;-70.400;2023-06-01T11:01:34;1.40;;;1.05;;
44981;SDS011;30716;41.740;-70.400;2023-06-01T11:04:05;1.77;;;1.10;;
44981;SDS011;30716;41.740;-70.400;2023-06-01T11:06:36;2.50;;;1.10;;
44981;SDS011;30716;41.740;-70.400;2023-06-01T11:09:05;1.40;;;0.90;;
44981;SDS011;30716;41.740;-70.400;2023-06-01T11:14:24;2.00;;;1.25;;
44981;SDS011;30716;41.740;-70.400;2023-06-01T11:16:54;1.67;;;1.00;;
44981;SDS011;30716;41.740;-70.400;2023-06-01T11:19:26;1.63;;;0.80;;
44981;SDS011;30716;41.740;-70.400;2023-06-01T11:22:00;5.70;;;2.03;;
44981;SDS011;30716;41.740;-70.400;2023-06-01T11:24:35;1.77;;;1.05;;
44981;SDS011;30716;41.740;-70.400;2023-06-01T11:27:05;1.13;;;0.80;;
44981;SDS011;30716;41.740;-70.400;2023-06-01T11:29:33;1.60;;;0.95;;
44981;SDS011;30716;41.740;-70.400;2023-06-01T11:32:01;1.48;;;1.00;;
44981;SDS011;30716;41.740;-70.400;2023-06-01T11:37:13;1.83;;;1.00;;
44981;SDS011;30716;41.740;-70.400;2023-06-01T11:39:44;1.85;;;1.25;;
44981;SDS011;30716;41.740;-70.400;2023-06-01T11:42:19;1.27;;;0.85;;
44981;SDS011;30716;41.740;-70.400;2023-06-01T11:44:56;1.70;;;1.02;;
44981;SDS011;30716;41.740;-70.400;2023-06-01T11:47:28;1.25;;;0.82;;
44981;SDS011;30716;41.740;-70.400;2023-06-01T11:49:55;1.20;;;0.80;;
44981;SDS011;30716;41.740;-70.400;2023-06-01T11:52:22;1.48;;;1.00;;
44981;SDS011;30716;41.740;-70.400;2023-06-01T11:54:48;1.58;;;0.90;;
44981;SDS011;30716;41.740;-70.400;2023-06-01T11:57:17;1.00;;;0.65;;
44981;SDS011;30716;41.740;-70.400;2023-06-01T11:59:48;1.77;;;1.00;;
44981;SDS011;30716;41.740;-70.400;2023-06-01T12:04:56;1.38;;;0.90;;
44981;SDS011;30716;41.740;-70.400;2023-06-01T12:07:24;1.35;;;0.80;;
44981;SDS011;30716;41.740;-70.400;2023-06-01T12:09:51;2.15;;;1.10;;
44981;SDS011;30716;41.740;-70.400;2023-06-01T12:12:22;1.20;;;0.70;;
44981;SDS011;30716;41.740;-70.400;2023-06-01T12:14:49;1.30;;;0.80;;
44981;SDS011;30716;41.740;-70.400;2023-06-01T12:17:16;0.77;;;0.60;;
44981;SDS011;30716;41.740;-70.400;2023-06-01T12:19:44;1.30;;;0.70;;
44981;SDS011;30716;41.740;-70.400;2023-06-01T12:22:14;1.02;;;0.80;;
44981;SDS011;30716;41.740;-70.400;2023-06-01T12:24:41;1.67;;;0.95;;
44981;SDS011;30716;41.740;-70.400;2023-06-01T12:27:18;1.83;;;0.90;;
44981;SDS011;30716;41.740;-70.400;2023-06-01T12:29:47;1.38;;;0.90;;
44981;SDS011;30716;41.740;-70.400;2023-06-01T12:32:15;0.98;;;0.60;;
44981;SDS011;30716;41.740;-70.400;2023-06-01T12:34:43;1.50;;;0.82;;
44981;SDS011;30716;41.740;-70.400;2023-06-01T12:37:19;0.82;;;0.70;;
44981;SDS011;30716;41.740;-70.400;2023-06-01T12:39:52;1.73;;;0.90;;
44981;SDS011;30716;41.740;-70.400;2023-06-01T12:42:33;1.33;;;0.80;;
44981;SDS011;30716;41.740;-70.400;2023-06-01T12:45:03;0.77;;;0.70;;
44981;SDS011;30716;41.740;-70.400;2023-06-01T12:47:38;1.13;;;0.70;;
44981;SDS011;30716;41.740;-70.400;2023-06-01T12:50:06;1.30;;;0.77;;
44981;SDS011;30716;41.740;-70.400;2023-06-01T12:52:37;1.53;;;0.80;;
44981;SDS011;30716;41.740;-70.400;2023-06-01T12:55:05;2.42;;;1.00;;
44981;SDS011;30716;41.740;-70.400;2023-06-01T12:57:33;1.60;;;1.02;;
44981;SDS011;30716;41.740;-70.400;2023-06-01T13:00:03;1.40;;;0.73;;
44981;SDS011;30716;41.740;-70.400;2023-06-01T13:02:31;1.42;;;0.85;;
44981;SDS011;30716;41.740;-70.400;2023-06-01T13:04:58;0.88;;;0.52;;
44981;SDS011;30716;41.740;-70.400;2023-06-01T13:07:25;2.40;;;1.00;;
44981;SDS011;30716;41.740;-70.400;2023-06-01T13:09:51;1.15;;;0.80;;
44981;SDS011;30716;41.740;-70.400;2023-06-01T13:12:18;1.85;;;1.10;;
44981;SDS011;30716;41.740;-70.400;2023-06-01T13:14:44;1.15;;;0.75;;
44981;SDS011;30716;41.740;-70.400;2023-06-01T13:17:10;1.40;;;0.98;;
44981;SDS011;30716;41.740;-70.400;2023-06-01T13:19:38;0.88;;;0.65;;
44981;SDS011;30716;41.740;-70.400;2023-06-01T13:22:04;1.35;;;0.82;;
44981;SDS011;30716;41.740;-70.400;2023-06-01T13:24:31;1.40;;;0.80;;
44981;SDS011;30716;41.740;-70.400;2023-06-01T13:26:57;1.55;;;0.98;;
44981;SDS011;30716;41.740;-70.400;2023-06-01T13:29:24;0.90;;;0.65;;
44981;SDS011;30716;41.740;-70.400;2023-06-01T13:31:50;1.70;;;0.75;;
44981;SDS011;30716;41.740;-70.400;2023-06-01T13:34:16;0.77;;;0.55;;
44981;SDS011;30716;41.740;-70.400;2023-06-01T13:36:46;1.52;;;0.80;;
44981;SDS011;30716;41.740;-70.400;2023-06-01T13:39:14;1.40;;;0.80;;
44981;SDS011;30716;41.740;-70.400;2023-06-01T13:41:40;1.33;;;0.75;;
44981;SDS011;30716;41.740;-70.400;2023-06-01T13:44:06;1.42;;;0.90;;
44981;SDS011;30716;41.740;-70.400;2023-06-01T13:46:33;1.10;;;0.80;;
44981;SDS011;30716;41.740;-70.400;2023-06-01T13:48:59;1.17;;;0.75;;
44981;SDS011;30716;41.740;-70.400;2023-06-01T13:51:26;1.60;;;0.88;;
44981;SDS011;30716;41.740;-70.400;2023-06-01T13:53:53;0.93;;;0.70;;
44981;SDS011;30716;41.740;-70.400;2023-06-01T13:56:19;1.45;;;0.95;;
44981;SDS011;30716;41.740;-70.400;2023-06-01T13:58:46;1.42;;;0.90;;
44981;SDS011;30716;41.740;-70.400;2023-06-01T14:01:13;0.98;;;0.50;;
44981;SDS011;30716;41.740;-70.400;2023-06-01T14:03:40;1.10;;;0.70;;
44981;SDS011;30716;41.740;-70.400;2023-06-01T14:06:07;1.15;;;0.85;;
44981;SDS011;30716;41.740;-70.400;2023-06-01T14:08:34;1.35;;;0.80;;
44981;SDS011;30716;41.740;-70.400;2023-06-01T14:11:00;0.98;;;0.70;;
44981;SDS011;30716;41.740;-70.400;2023-06-01T14:13:26;1.45;;;0.60;;
44981;SDS011;30716;41.740;-70.400;2023-06-01T14:15:53;1.25;;;0.70;;
44981;SDS011;30716;41.740;-70.400;2023-06-01T14:18:21;1.27;;;0.90;;
44981;SDS011;30716;41.740;-70.400;2023-06-01T14:20:47;1.45;;;1.15;;
44981;SDS011;30716;41.740;-70.400;2023-06-01T14:23:13;1.40;;;1.00;;
44981;SDS011;30716;41.740;-70.400;2023-06-01T14:25:40;1.27;;;0.82;;
44981;SDS011;30716;41.740;-70.400;2023-06-01T14:28:06;1.42;;;0.82;;
44981;SDS011;30716;41.740;-70.400;2023-06-01T14:30:32;0.80;;;0.50;;
44981;SDS011;30716;41.740;-70.400;2023-06-01T14:32:59;1.55;;;0.80;;
44981;SDS011;30716;41.740;-70.400;2023-06-01T14:35:25;1.10;;;0.70;;
44981;SDS011;30716;41.740;-70.400;2023-06-01T14:37:51;0.63;;;0.60;;
44981;SDS011;30716;41.740;-70.400;2023-06-01T14:40:18;1.15;;;0.63;;
44981;SDS011;30716;41.740;-70.400;2023-06-01T14:42:44;0.70;;;0.50;;
44981;SDS011;30716;41.740;-70.400;2023-06-01T14:45:11;1.33;;;0.77;;
44981;SDS011;30716;41.740;-70.400;2023-06-01T14:47:37;1.52;;;0.82;;
44981;SDS011;30716;41.740;-70.400;2023-06-01T14:50:06;1.27;;;0.73;;
44981;SDS011;30716;41.740;-70.400;2023-06-01T14:52:33;1.58;;;0.90;;
44981;SDS011;30716;41.740;-70.400;2023-06-01T14:55:00;1.52;;;0.70;;
44981;SDS011;30716;41.740;-70.400;2023-06-01T14:57:26;1.00;;;0.60;;
44981;SDS011;30716;41.740;-70.400;2023-06-01T14:59:52;1.90;;;0.80;;
44981;SDS011;30716;41.740;-70.400;2023-06-01T15:02:19;1.10;;;0.60;;
44981;SDS011;30716;41.740;-70.400;2023-06-01T15:04:45;1.88;;;0.63;;
44981;SDS011;30716;41.740;-70.400;2023-06-01T15:07:12;1.00;;;0.70;;
44981;SDS011;30716;41.740;-70.400;2023-06-01T15:09:38;1.40;;;0.75;;
44981;SDS011;30716;41.740;-70.400;2023-06-01T15:12:04;2.42;;;0.90;;
44981;SDS011;30716;41.740;-70.400;2023-06-01T15:14:31;1.10;;;0.77;;
44981;SDS011;30716;41.740;-70.400;2023-06-01T15:16:57;1.25;;;0.88;;